sensor_id;sensor_type;location;lat;lon;timestamp;P1;durP1;ratioP1;P2;durP2;ratioP2
24151;SDS011;12311;50.866;4.332;2023-04-30T05:50:17;12.85;;;4.50;;
24151;SDS011;12311;50.866;4.332;2023-04-30T05:52:43;9.32;;;3.83;;
24151;SDS011;12311;50.866;4.332;2023-04-30T05:55:08;10.20;;;4.75;;
24151;SDS011;12311;50.866;4.332;2023-04-30T05:57:35;7.07;;;3.47;;
24151;SDS011;12311;50.866;4.332;2023-04-30T06:00:01;5.95;;;3.22;;
24151;SDS011;12311;50.866;4.332;2023-04-30T06:02:27;10.02;;;3.90;;
24151;SDS011;12311;50.866;4.332;2023-04-30T06:04:53;8.05;;;4.43;;
24151;SDS011;12311;50.866;4.332;2023-04-30T06:07:18;11.23;;;4.65;;
24151;SDS011;12311;50.866;4.332;2023-04-30T06:09:44;7.07;;;4.05;;
24151;SDS011;12311;50.866;4.332;2023-04-30T06:12:10;8.73;;;4.20;;
24151;SDS011;12311;50.866;4.332;2023-04-30T06:14:35;9.00;;;4.80;;
24151;SDS011;12311;50.866;4.332;2023-04-30T06:17:01;10.45;;;4.85;;
24151;SDS011;12311;50.866;4.332;2023-04-30T06:19:27;9.25;;;4.45;;
24151;SDS011;12311;50.866;4.332;2023-04-30T06:21:53;10.45;;;3.90;;
24151;SDS011;12311;50.866;4.332;2023-04-30T06:24:18;10.65;;;4.47;;
24151;SDS011;12311;50.866;4.332;2023-04-30T06:26:44;7.57;;;4.28;;
24151;SDS011;12311;50.866;4.332;2023-04-30T06:29:10;11.75;;;4.22;;
24151;SDS011;12311;50.866;4.332;2023-04-30T06:31:35;11.55;;;4.72;;
24151;SDS011;12311;50.866;4.332;2023-04-30T06:34:01;14.70;;;5.30;;
24151;SDS011;12311;50.866;4.332;2023-04-30T06:36:27;13.90;;;5.07;;
24151;SDS011;12311;50.866;4.332;2023-04-30T06:38:52;10.48;;;5.28;;
24151;SDS011;12311;50.866;4.332;2023-04-30T06:41:18;15.68;;;5.85;;
24151;SDS011;12311;50.866;4.332;2023-04-30T06:43:44;13.43;;;5.63;;
24151;SDS011;12311;50.866;4.332;2023-04-30T06:46:10;10.25;;;5.13;;
24151;SDS011;12311;50.866;4.332;2023-04-30T06:48:36;16.05;;;5.82;;
24151;SDS011;12311;50.866;4.332;2023-04-30T06:51:01;14.52;;;6.28;;
24151;SDS011;12311;50.866;4.332;2023-04-30T06:53:27;12.50;;;5.97;;
24151;SDS011;12311;50.866;4.332;2023-04-30T06:55:53;12.55;;;5.13;;
24151;SDS011;12311;50.866;4.332;2023-04-30T06:58:19;12.63;;;5.03;;
24151;SDS011;12311;50.866;4.332;2023-04-30T07:00:45;14.18;;;5.45;;
24151;SDS011;12311;50.866;4.332;2023-04-30T07:03:10;14.30;;;6.07;;
24151;SDS011;12311;50.866;4.332;2023-04-30T07:05:36;20.25;;;6.25;;
24151;SDS011;12311;50.866;4.332;2023-04-30T07:08:02;14.77;;;6.38;;
24151;SDS011;12311;50.866;4.332;2023-04-30T07:10:28;12.15;;;5.25;;
24151;SDS011;12311;50.866;4.332;2023-04-30T07:12:55;15.65;;;5.85;;
24151;SDS011;12311;50.866;4.332;2023-04-30T07:15:21;13.80;;;5.97;;
24151;SDS011;12311;50.866;4.332;2023-04-30T07:17:47;16.10;;;6.20;;
24151;SDS011;12311;50.866;4.332;2023-04-30T07:20:13;14.00;;;4.93;;
24151;SDS011;12311;50.866;4.332;2023-04-30T07:22:39;10.98;;;5.90;;
24151;SDS011;12311;50.866;4.332;2023-04-30T07:25:09;13.98;;;6.85;;
24151;SDS011;12311;50.866;4.332;2023-04-30T07:27:38;16.75;;;5.60;;
24151;SDS011;12311;50.866;4.332;2023-04-30T07:30:05;15.73;;;5.80;;
24151;SDS011;12311;50.866;4.332;2023-04-30T07:32:33;11.80;;;5.55;;
24151;SDS011;12311;50.866;4.332;2023-04-30T07:35:00;14.65;;;5.95;;
24151;SDS011;12311;50.866;4.332;2023-04-30T07:37:25;14.18;;;5.43;;
24151;SDS011;12311;50.866;4.332;2023-04-30T07:39:51;11.55;;;6.35;;
24151;SDS011;12311;50.866;4.332;2023-04-30T07:42:17;11.32;;;5.07;;
24151;SDS011;12311;50.866;4.332;2023-04-30T07:44:43;11.48;;;6.35;;
24151;SDS011;12311;50.866;4.332;2023-04-30T07:47:08;12.23;;;4.90;;
24151;SDS011;12311;50.866;4.332;2023-04-30T07:49:34;13.18;;;5.72;;
24151;SDS011;12311;50.866;4.332;2023-04-30T07:52:00;14.15;;;5.50;;
24151;SDS011;12311;50.866;4.332;2023-04-30T07:54:26;15.60;;;6.68;;
24151;SDS011;12311;50.866;4.332;2023-04-30T07:56:52;17.05;;;5.22;;
24151;SDS011;12311;50.866;4.332;2023-04-30T07:59:17;18.27;;;6.88;;
24151;SDS011;12311;50.866;4.332;2023-04-30T08:01:45;11.23;;;5.22;;
24151;SDS011;12311;50.866;4.332;2023-04-30T08:04:11;13.07;;;5.18;;
24151;SDS011;12311;50.866;4.332;2023-04-30T08:06:37;15.95;;;5.53;;
24151;SDS011;12311;50.866;4.332;2023-04-30T08:09:02;14.55;;;6.20;;
24151;SDS011;12311;50.866;4.332;2023-04-30T08:11:28;17.60;;;5.68;;
24151;SDS011;12311;50.866;4.332;2023-04-30T08:13:54;13.60;;;6.10;;
24151;SDS011;12311;50.866;4.332;2023-04-30T08:16:20;16.88;;;7.20;;
24151;SDS011;12311;50.866;4.332;2023-04-30T08:18:45;12.68;;;5.00;;
24151;SDS011;12311;50.866;4.332;2023-04-30T08:21:13;14.30;;;5.75;;
24151;SDS011;12311;50.866;4.332;2023-04-30T08:23:39;12.98;;;5.43;;
24151;SDS011;12311;50.866;4.332;2023-04-30T08:26:05;11.65;;;5.32;;
24151;SDS011;12311;50.866;4.332;2023-04-30T08:28:30;16.23;;;6.22;;
24151;SDS011;12311;50.866;4.332;2023-04-30T08:30:56;10.80;;;5.15;;
24151;SDS011;12311;50.866;4.332;2023-04-30T08:33:22;15.50;;;4.80;;
24151;SDS011;12311;50.866;4.332;2023-04-30T08:35:47;11.23;;;5.22;;
24151;SDS011;12311;50.866;4.332;2023-04-30T08:38:13;13.85;;;6.25;;
24151;SDS011;12311;50.866;4.332;2023-04-30T08:40:39;10.48;;;5.32;;
24151;SDS011;12311;50.866;4.332;2023-04-30T08:43:06;10.70;;;5.30;;
24151;SDS011;12311;50.866;4.332;2023-04-30T08:45:33;13.35;;;5.80;;
24151;SDS011;12311;50.866;4.332;2023-04-30T08:48:01;10.25;;;5.10;;
24151;SDS011;12311;50.866;4.332;2023-04-30T08:50:29;12.73;;;5.80;;
24151;SDS011;12311;50.866;4.332;2023-04-30T08:52:56;11.10;;;4.93;;
24151;SDS011;12311;50.866;4.332;2023-04-30T08:55:23;9.07;;;4.97;;
24151;SDS011;12311;50.866;4.332;2023-04-30T08:57:51;14.27;;;5.78;;
24151;SDS011;12311;50.866;4.332;2023-04-30T09:00:16;12.18;;;4.65;;
24151;SDS011;12311;50.866;4.332;2023-04-30T09:02:42;10.98;;;4.88;;
24151;SDS011;12311;50.866;4.332;2023-04-30T09:05:13;7.78;;;3.97;;
24151;SDS011;12311;50.866;4.332;2023-04-30T09:07:40;12.02;;;5.30;;
24151;SDS011;12311;50.866;4.332;2023-04-30T09:10:13;11.52;;;5.30;;
24151;SDS011;12311;50.866;4.332;2023-04-30T09:12:40;16.40;;;4.03;;
24151;SDS011;12311;50.866;4.332;2023-04-30T09:15:07;8.18;;;4.57;;
24151;SDS011;12311;50.866;4.332;2023-04-30T09:17:33;11.07;;;4.68;;
24151;SDS011;12311;50.866;4.332;2023-04-30T09:20:17;10.25;;;4.40;;
24151;SDS011;12311;50.866;4.332;2023-04-30T09:22:43;9.65;;;4.03;;
24151;SDS011;12311;50.866;4.332;2023-04-30T09:25:09;8.25;;;4.57;;
24151;SDS011;12311;50.866;4.332;2023-04-30T09:27:35;8.63;;;3.95;;
24151;SDS011;12311;50.866;4.332;2023-04-30T09:30:01;9.68;;;3.85;;
24151;SDS011;12311;50.866;4.332;2023-04-30T09:32:27;6.82;;;3.53;;
24151;SDS011;12311;50.866;4.332;2023-04-30T09:34:54;9.25;;;3.22;;
24151;SDS011;12311;50.866;4.332;2023-04-30T09:37:19;8.77;;;3.90;;
24151;SDS011;12311;50.866;4.332;2023-04-30T09:39:55;10.73;;;3.78;;
24151;SDS011;12311;50.866;4.332;2023-04-30T09:42:21;9.07;;;4.35;;
24151;SDS011;12311;50.866;4.332;2023-04-30T09:44:47;8.32;;;3.42;;
24151;SDS011;12311;50.866;4.332;2023-04-30T09:47:13;9.60;;;4.10;;
24151;SDS011;12311;50.866;4.332;2023-04-30T09:49:41;9.07;;;3.85;;
24151;SDS011;12311;50.866;4.332;2023-04-30T09:52:08;9.55;;;4.28;;
24151;SDS011;12311;50.866;4.332;2023-04-30T09:54:34;9.75;;;3.72;;
24151;SDS011;12311;50.866;4.332;2023-04-30T09:57:01;8.15;;;3.50;;
24151;SDS011;12311;50.866;4.332;2023-04-30T09:59:28;8.48;;;4.45;;
24151;SDS011;12311;50.866;4.332;2023-04-30T10:01:59;9.77;;;3.47;;
24151;SDS011;12311;50.866;4.332;2023-04-30T10:04:33;10.68;;;4.00;;
24151;SDS011;12311;50.866;4.332;2023-04-30T10:07:03;6.95;;;3.38;;
24151;SDS011;12311;50.866;4.332;2023-04-30T10:09:37;12.18;;;4.30;;
24151;SDS011;12311;50.866;4.332;2023-04-30T10:14:32;8.45;;;3.55;;
24151;SDS011;12311;50.866;4.332;2023-04-30T10:17:06;11.25;;;3.60;;
24151;SDS011;12311;50.866;4.332;2023-04-30T10:19:36;5.75;;;3.22;;
24151;SDS011;12311;50.866;4.332;2023-04-30T10:22:05;5.10;;;2.55;;
24151;SDS011;12311;50.866;4.332;2023-04-30T10:24:32;6.57;;;2.67;;
24151;SDS011;12311;50.866;4.332;2023-04-30T10:26:58;5.32;;;2.90;;
24151;SDS011;12311;50.866;4.332;2023-04-30T10:29:24;7.00;;;2.70;;
24151;SDS011;12311;50.866;4.332;2023-04-30T10:31:50;5.88;;;2.67;;
24151;SDS011;12311;50.866;4.332;2023-04-30T10:34:33;8.02;;;3.92;;
24151;SDS011;12311;50.866;4.332;2023-04-30T10:37:08;7.25;;;2.97;;
24151;SDS011;12311;50.866;4.332;2023-04-30T10:39:42;6.50;;;2.85;;
24151;SDS011;12311;50.866;4.332;2023-04-30T10:42:08;5.30;;;2.28;;
24151;SDS011;12311;50.866;4.332;2023-04-30T10:44:38;5.47;;;2.80;;
24151;SDS011;12311;50.866;4.332;2023-04-30T10:47:06;8.68;;;3.13;;
24151;SDS011;12311;50.866;4.332;2023-04-30T10:49:32;4.68;;;2.33;;
24151;SDS011;12311;50.866;4.332;2023-04-30T10:51:59;11.25;;;3.08;;
24151;SDS011;12311;50.866;4.332;2023-04-30T10:54:31;5.03;;;2.45;;
24151;SDS011;12311;50.866;4.332;2023-04-30T10:57:08;9.18;;;2.15;;
24151;SDS011;12311;50.866;4.332;2023-04-30T10:59:52;6.15;;;2.50;;
24151;SDS011;12311;50.866;4.332;2023-04-30T11:02:40;6.00;;;2.13;;
24151;SDS011;12311;50.866;4.332;2023-04-30T11:05:09;3.55;;;1.77;;
24151;SDS011;12311;50.866;4.332;2023-04-30T11:07:48;3.45;;;1.92;;
24151;SDS011;12311;50.866;4.332;2023-04-30T11:10:22;6.18;;;2.22;;
24151;SDS011;12311;50.866;4.332;2023-04-30T11:12:50;4.97;;;2.13;;
24151;SDS011;12311;50.866;4.332;2023-04-30T11:15:17;5.53;;;3.00;;
24151;SDS011;12311;50.866;4.332;2023-04-30T11:17:48;5.25;;;2.58;;
24151;SDS011;12311;50.866;4.332;2023-04-30T11:20:18;4.47;;;2.13;;
24151;SDS011;12311;50.866;4.332;2023-04-30T11:22:45;3.58;;;2.15;;
24151;SDS011;12311;50.866;4.332;2023-04-30T11:25:12;6.20;;;2.00;;
24151;SDS011;12311;50.866;4.332;2023-04-30T11:30:12;3.85;;;1.80;;
24151;SDS011;12311;50.866;4.332;2023-04-30T11:32:42;5.15;;;2.17;;
24151;SDS011;12311;50.866;4.332;2023-04-30T11:35:11;4.70;;;1.90;;
24151;SDS011;12311;50.866;4.332;2023-04-30T11:37:38;4.57;;;2.28;;
24151;SDS011;12311;50.866;4.332;2023-04-30T11:40:07;3.15;;;1.48;;
24151;SDS011;12311;50.866;4.332;2023-04-30T11:42:37;3.47;;;1.43;;
24151;SDS011;12311;50.866;4.332;2023-04-30T11:45:06;3.85;;;1.98;;
24151;SDS011;12311;50.866;4.332;2023-04-30T11:47:48;4.10;;;1.60;;
24151;SDS011;12311;50.866;4.332;2023-04-30T11:50:22;3.90;;;1.63;;
24151;SDS011;12311;50.866;4.332;2023-04-30T11:52:53;4.15;;;1.30;;
24151;SDS011;12311;50.866;4.332;2023-04-30T11:55:21;3.40;;;1.60;;
24151;SDS011;12311;50.866;4.332;2023-04-30T11:57:50;3.47;;;1.40;;
24151;SDS011;12311;50.866;4.332;2023-04-30T12:00:19;3.30;;;1.10;;
24151;SDS011;12311;50.866;4.332;2023-04-30T12:02:47;2.67;;;1.58;;
24151;SDS011;12311;50.866;4.332;2023-04-30T12:05:14;4.43;;;1.75;;
24151;SDS011;12311;50.866;4.332;2023-04-30T12:07:59;3.90;;;1.67;;
24151;SDS011;12311;50.866;4.332;2023-04-30T12:10:29;1.88;;;1.15;;
24151;SDS011;12311;50.866;4.332;2023-04-30T12:12:56;3.60;;;1.38;;
24151;SDS011;12311;50.866;4.332;2023-04-30T12:15:23;4.15;;;1.90;;
24151;SDS011;12311;50.866;4.332;2023-04-30T12:17:56;2.97;;;1.70;;
24151;SDS011;12311;50.866;4.332;2023-04-30T12:20:28;2.63;;;1.40;;
24151;SDS011;12311;50.866;4.332;2023-04-30T12:22:56;5.00;;;2.05;;
24151;SDS011;12311;50.866;4.332;2023-04-30T12:25:22;3.15;;;1.58;;
24151;SDS011;12311;50.866;4.332;2023-04-30T12:27:52;2.65;;;1.60;;
24151;SDS011;12311;50.866;4.332;2023-04-30T12:30:18;3.90;;;1.98;;
24151;SDS011;12311;50.866;4.332;2023-04-30T12:32:56;3.65;;;1.40;;
24151;SDS011;12311;50.866;4.332;2023-04-30T12:35:22;3.30;;;1.42;;
24151;SDS011;12311;50.866;4.332;2023-04-30T12:37:50;4.38;;;1.63;;
24151;SDS011;12311;50.866;4.332;2023-04-30T12:40:19;7.03;;;2.25;;
24151;SDS011;12311;50.866;4.332;2023-04-30T12:42:45;3.90;;;1.92;;
24151;SDS011;12311;50.866;4.332;2023-04-30T12:45:12;6.18;;;1.60;;
24151;SDS011;12311;50.866;4.332;2023-04-30T12:47:58;4.82;;;2.65;;
24151;SDS011;12311;50.866;4.332;2023-04-30T12:50:24;3.92;;;2.17;;
24151;SDS011;12311;50.866;4.332;2023-04-30T12:52:51;5.35;;;2.15;;
24151;SDS011;12311;50.866;4.332;2023-04-30T12:55:17;2.17;;;1.55;;
24151;SDS011;12311;50.866;4.332;2023-04-30T13:00:41;2.75;;;1.40;;
24151;SDS011;12311;50.866;4.332;2023-04-30T13:03:11;4.88;;;1.70;;
24151;SDS011;12311;50.866;4.332;2023-04-30T13:05:38;2.88;;;1.60;;
24151;SDS011;12311;50.866;4.332;2023-04-30T13:08:05;3.75;;;1.30;;
24151;SDS011;12311;50.866;4.332;2023-04-30T13:10:31;4.38;;;1.50;;
24151;SDS011;12311;50.866;4.332;2023-04-30T13:12:57;3.97;;;1.70;;
24151;SDS011;12311;50.866;4.332;2023-04-30T13:15:23;2.58;;;1.50;;
24151;SDS011;12311;50.866;4.332;2023-04-30T13:17:49;3.65;;;1.13;;
24151;SDS011;12311;50.866;4.332;2023-04-30T13:20:16;1.85;;;1.00;;
24151;SDS011;12311;50.866;4.332;2023-04-30T13:22:42;1.90;;;1.25;;
24151;SDS011;12311;50.866;4.332;2023-04-30T13:25:08;1.83;;;1.00;;
24151;SDS011;12311;50.866;4.332;2023-04-30T13:27:33;2.30;;;1.30;;
24151;SDS011;12311;50.866;4.332;2023-04-30T13:30:01;2.13;;;1.00;;
24151;SDS011;12311;50.866;4.332;2023-04-30T13:32:27;2.25;;;1.00;;
24151;SDS011;12311;50.866;4.332;2023-04-30T13:34:53;5.72;;;2.70;;
24151;SDS011;12311;50.866;4.332;2023-04-30T13:37:20;2.60;;;1.17;;
24151;SDS011;12311;50.866;4.332;2023-04-30T13:39:46;1.20;;;0.90;;
24151;SDS011;12311;50.866;4.332;2023-04-30T13:42:15;1.88;;;0.85;;
24151;SDS011;12311;50.866;4.332;2023-04-30T13:44:40;3.30;;;1.65;;
24151;SDS011;12311;50.866;4.332;2023-04-30T13:47:10;2.08;;;1.00;;
24151;SDS011;12311;50.866;4.332;2023-04-30T13:49:35;4.57;;;1.52;;
24151;SDS011;12311;50.866;4.332;2023-04-30T13:52:02;3.95;;;1.92;;
24151;SDS011;12311;50.866;4.332;2023-04-30T13:54:28;4.25;;;1.60;;
24151;SDS011;12311;50.866;4.332;2023-04-30T13:56:53;1.38;;;0.82;;
24151;SDS011;12311;50.866;4.332;2023-04-30T13:59:19;2.90;;;1.20;;
24151;SDS011;12311;50.866;4.332;2023-04-30T14:01:45;2.33;;;1.20;;
24151;SDS011;12311;50.866;4.332;2023-04-30T14:04:11;2.15;;;0.98;;
24151;SDS011;12311;50.866;4.332;2023-04-30T14:06:37;3.67;;;1.30;;
24151;SDS011;12311;50.866;4.332;2023-04-30T14:09:04;2.00;;;0.98;;
24151;SDS011;12311;50.866;4.332;2023-04-30T14:11:30;2.42;;;1.10;;
24151;SDS011;12311;50.866;4.332;2023-04-30T14:13:56;1.17;;;0.85;;
24151;SDS011;12311;50.866;4.332;2023-04-30T14:16:22;1.60;;;0.70;;
24151;SDS011;12311;50.866;4.332;2023-04-30T14:18:47;1.10;;;0.77;;
24151;SDS011;12311;50.866;4.332;2023-04-30T14:21:13;6.18;;;3.22;;
24151;SDS011;12311;50.866;4.332;2023-04-30T14:23:39;3.47;;;1.90;;
24151;SDS011;12311;50.866;4.332;2023-04-30T14:26:05;4.25;;;2.08;;
24151;SDS011;12311;50.866;4.332;2023-04-30T14:28:31;2.25;;;1.40;;
24151;SDS011;12311;50.866;4.332;2023-04-30T14:30:57;1.25;;;0.98;;
24151;SDS011;12311;50.866;4.332;2023-04-30T14:33:23;2.63;;;1.30;;
24151;SDS011;12311;50.866;4.332;2023-04-30T14:35:48;1.60;;;1.08;;
24151;SDS011;12311;50.866;4.332;2023-04-30T14:38:14;2.47;;;1.33;;
24151;SDS011;12311;50.866;4.332;2023-04-30T14:40:41;2.72;;;1.30;;
24151;SDS011;12311;50.866;4.332;2023-04-30T14:43:07;1.10;;;0.85;;
24151;SDS011;12311;50.866;4.332;2023-04-30T14:45:33;1.35;;;1.05;;
24151;SDS011;12311;50.866;4.332;2023-04-30T14:47:59;1.48;;;0.70;;
24151;SDS011;12311;50.866;4.332;2023-04-30T14:50:25;1.27;;;0.60;;
24151;SDS011;12311;50.866;4.332;2023-04-30T14:52:51;1.17;;;1.00;;
24151;SDS011;12311;50.866;4.332;2023-04-30T14:55:17;2.17;;;0.68;;
24151;SDS011;12311;50.866;4.332;2023-04-30T14:57:42;1.88;;;0.93;;
24151;SDS011;12311;50.866;4.332;2023-04-30T15:00:08;10.52;;;1.73;;
24151;SDS011;12311;50.866;4.332;2023-04-30T15:02:35;2.05;;;1.33;;
24151;SDS011;12311;50.866;4.332;2023-04-30T15:05:02;2.72;;;1.65;;
24151;SDS011;12311;50.866;4.332;2023-04-30T15:07:29;4.18;;;1.30;;
24151;SDS011;12311;50.866;4.332;2023-04-30T15:09:55;2.58;;;1.17;;
24151;SDS011;12311;50.866;4.332;2023-04-30T15:12:21;1.83;;;1.23;;
24151;SDS011;12311;50.866;4.332;2023-04-30T15:14:47;1.50;;;1.00;;
24151;SDS011;12311;50.866;4.332;2023-04-30T15:17:12;2.60;;;1.00;;
24151;SDS011;12311;50.866;4.332;2023-04-30T15:19:38;2.80;;;0.90;;
24151;SDS011;12311;50.866;4.332;2023-04-30T15:22:07;2.17;;;1.00;;
24151;SDS011;12311;50.866;4.332;2023-04-30T15:24:33;1.52;;;0.95;;
24151;SDS011;12311;50.866;4.332;2023-04-30T15:27:00;2.58;;;1.45;;
24151;SDS011;12311;50.866;4.332;2023-04-30T15:29:26;3.33;;;1.40;;
24151;SDS011;12311;50.866;4.332;2023-04-30T15:31:52;3.20;;;1.67;;
24151;SDS011;12311;50.866;4.332;2023-04-30T15:34:19;1.77;;;1.02;;
24151;SDS011;12311;50.866;4.332;2023-04-30T15:36:46;2.72;;;1.10;;
24151;SDS011;12311;50.866;4.332;2023-04-30T15:39:12;1.88;;;1.30;;
24151;SDS011;12311;50.866;4.332;2023-04-30T15:41:37;1.63;;;0.98;;
24151;SDS011;12311;50.866;4.332;2023-04-30T15:44:03;2.05;;;0.90;;
24151;SDS011;12311;50.866;4.332;2023-04-30T15:46:29;1.25;;;0.80;;
24151;SDS011;12311;50.866;4.332;2023-04-30T15:48:55;2.30;;;1.00;;
24151;SDS011;12311;50.866;4.332;2023-04-30T15:51:21;1.10;;;0.80;;
24151;SDS011;12311;50.866;4.332;2023-04-30T15:53:46;1.65;;;0.98;;
24151;SDS011;12311;50.866;4.332;2023-04-30T15:56:12;3.42;;;0.90;;
24151;SDS011;12311;50.866;4.332;2023-04-30T15:58:38;1.58;;;0.95;;
24151;SDS011;12311;50.866;4.332;2023-04-30T16:01:04;3.10;;;1.10;;
24151;SDS011;12311;50.866;4.332;2023-04-30T16:03:30;2.25;;;1.13;;
24151;SDS011;12311;50.866;4.332;2023-04-30T16:05:57;3.42;;;1.67;;
24151;SDS011;12311;50.866;4.332;2023-04-30T16:08:24;2.53;;;1.15;;
24151;SDS011;12311;50.866;4.332;2023-04-30T16:10:50;1.67;;;0.80;;
24151;SDS011;12311;50.866;4.332;2023-04-30T16:13:17;1.85;;;1.13;;
24151;SDS011;12311;50.866;4.332;2023-04-30T16:15:42;1.48;;;0.82;;
24151;SDS011;12311;50.866;4.332;2023-04-30T16:18:08;1.48;;;1.00;;
24151;SDS011;12311;50.866;4.332;2023-04-30T16:20:35;1.35;;;0.90;;
24151;SDS011;12311;50.866;4.332;2023-04-30T16:23:02;2.80;;;0.90;;
24151;SDS011;12311;50.866;4.332;2023-04-30T16:25:29;1.75;;;0.88;;
24151;SDS011;12311;50.866;4.332;2023-04-30T16:27:55;2.25;;;1.13;;
24151;SDS011;12311;50.866;4.332;2023-04-30T16:30:21;4.35;;;1.02;;
24151;SDS011;12311;50.866;4.332;2023-04-30T16:32:46;1.90;;;1.30;;
24151;SDS011;12311;50.866;4.332;2023-04-30T16:35:12;1.58;;;0.80;;
24151;SDS011;12311;50.866;4.332;2023-04-30T16:37:38;1.80;;;1.00;;
24151;SDS011;12311;50.866;4.332;2023-04-30T16:40:04;2.92;;;0.80;;
24151;SDS011;12311;50.866;4.332;2023-04-30T16:42:31;1.33;;;0.70;;
24151;SDS011;12311;50.866;4.332;2023-04-30T16:44:58;1.02;;;0.70;;
24151;SDS011;12311;50.866;4.332;2023-04-30T16:47:23;3.40;;;1.42;;
24151;SDS011;12311;50.866;4.332;2023-04-30T16:49:49;0.90;;;0.55;;
24151;SDS011;12311;50.866;4.332;2023-04-30T16:52:15;1.20;;;0.70;;
24151;SDS011;12311;50.866;4.332;2023-04-30T16:54:41;0.80;;;0.60;;
24151;SDS011;12311;50.866;4.332;2023-04-30T16:57:06;3.42;;;1.48;;
24151;SDS011;12311;50.866;4.332;2023-04-30T16:59:32;2.85;;;0.77;;
24151;SDS011;12311;50.866;4.332;2023-04-30T17:01:58;0.85;;;0.60;;
24151;SDS011;12311;50.866;4.332;2023-04-30T17:04:25;1.05;;;0.60;;
24151;SDS011;12311;50.866;4.332;2023-04-30T17:06:51;2.25;;;1.10;;
24151;SDS011;12311;50.866;4.332;2023-04-30T17:09:17;0.90;;;0.60;;
24151;SDS011;12311;50.866;4.332;2023-04-30T17:11:43;1.25;;;0.90;;
24151;SDS011;12311;50.866;4.332;2023-04-30T17:14:09;0.77;;;0.57;;
24151;SDS011;12311;50.866;4.332;2023-04-30T17:16:35;1.13;;;0.80;;
24151;SDS011;12311;50.866;4.332;2023-04-30T17:19:01;0.70;;;0.60;;
24151;SDS011;12311;50.866;4.332;2023-04-30T17:21:26;2.03;;;0.80;;
24151;SDS011;12311;50.866;4.332;2023-04-30T17:23:53;1.73;;;0.70;;
24151;SDS011;12311;50.866;4.332;2023-04-30T17:26:19;3.15;;;0.80;;
24151;SDS011;12311;50.866;4.332;2023-04-30T17:28:45;1.48;;;0.93;;
24151;SDS011;12311;50.866;4.332;2023-04-30T17:31:11;2.50;;;0.70;;
24151;SDS011;12311;50.866;4.332;2023-04-30T17:33:37;0.80;;;0.52;;
24151;SDS011;12311;50.866;4.332;2023-04-30T17:36:03;1.15;;;0.88;;
24151;SDS011;12311;50.866;4.332;2023-04-30T17:38:29;2.55;;;0.90;;
24151;SDS011;12311;50.866;4.332;2023-04-30T17:40:56;1.50;;;0.85;;
24151;SDS011;12311;50.866;4.332;2023-04-30T17:43:22;1.60;;;1.08;;
24151;SDS011;12311;50.866;4.332;2023-04-30T17:45:48;1.52;;;0.90;;
24151;SDS011;12311;50.866;4.332;2023-04-30T17:48:17;4.53;;;0.80;;
24151;SDS011;12311;50.866;4.332;2023-04-30T17:50:43;2.35;;;0.95;;
24151;SDS011;12311;50.866;4.332;2023-04-30T17:53:10;2.45;;;1.17;;
24151;SDS011;12311;50.866;4.332;2023-04-30T17:55:36;2.10;;;0.90;;
24151;SDS011;12311;50.866;4.332;2023-04-30T17:58:01;3.03;;;0.95;;
24151;SDS011;12311;50.866;4.332;2023-04-30T18:00:28;1.38;;;0.60;;
24151;SDS011;12311;50.866;4.332;2023-04-30T18:02:54;2.13;;;1.00;;
24151;SDS011;12311;50.866;4.332;2023-04-30T18:05:20;2.50;;;1.00;;
24151;SDS011;12311;50.866;4.332;2023-04-30T18:07:45;1.92;;;1.23;;
24151;SDS011;12311;50.866;4.332;2023-04-30T18:10:12;9.00;;;3.08;;
24151;SDS011;12311;50.866;4.332;2023-04-30T18:12:37;1.92;;;0.80;;
24151;SDS011;12311;50.866;4.332;2023-04-30T18:15:04;2.20;;;1.05;;
24151;SDS011;12311;50.866;4.332;2023-04-30T18:17:30;1.92;;;0.95;;
24151;SDS011;12311;50.866;4.332;2023-04-30T18:19:56;1.80;;;1.05;;
24151;SDS011;12311;50.866;4.332;2023-04-30T18:22:22;4.30;;;1.10;;
24151;SDS011;12311;50.866;4.332;2023-04-30T18:24:48;2.70;;;1.15;;
24151;SDS011;12311;50.866;4.332;2023-04-30T18:27:17;1.55;;;0.88;;
24151;SDS011;12311;50.866;4.332;2023-04-30T18:29:43;1.75;;;1.05;;
24151;SDS011;12311;50.866;4.332;2023-04-30T18:32:09;1.48;;;0.80;;
24151;SDS011;12311;50.866;4.332;2023-04-30T18:34:36;1.40;;;0.90;;
24151;SDS011;12311;50.866;4.332;2023-04-30T18:37:02;5.45;;;1.42;;
24151;SDS011;12311;50.866;4.332;2023-04-30T18:39:27;3.05;;;1.30;;
24151;SDS011;12311;50.866;4.332;2023-04-30T18:41:55;1.90;;;1.00;;
24151;SDS011;12311;50.866;4.332;2023-04-30T18:44:26;2.70;;;0.88;;
24151;SDS011;12311;50.866;4.332;2023-04-30T18:46:58;4.47;;;1.20;;
24151;SDS011;12311;50.866;4.332;2023-04-30T18:49:24;1.67;;;1.02;;
24151;SDS011;12311;50.866;4.332;2023-04-30T18:51:50;3.80;;;1.20;;
24151;SDS011;12311;50.866;4.332;2023-04-30T18:54:18;1.98;;;1.08;;
24151;SDS011;12311;50.866;4.332;2023-04-30T18:56:44;1.77;;;1.20;;
24151;SDS011;12311;50.866;4.332;2023-04-30T18:59:10;3.17;;;1.52;;
24151;SDS011;12311;50.866;4.332;2023-04-30T19:01:35;4.00;;;1.30;;
24151;SDS011;12311;50.866;4.332;2023-04-30T19:04:01;4.35;;;1.70;;
24151;SDS011;12311;50.866;4.332;2023-04-30T19:06:27;2.33;;;1.67;;
24151;SDS011;12311;50.866;4.332;2023-04-30T19:08:54;3.03;;;1.30;;
24151;SDS011;12311;50.866;4.332;2023-04-30T19:11:20;3.92;;;1.65;;
24151;SDS011;12311;50.866;4.332;2023-04-30T19:13:46;3.58;;;1.60;;
24151;SDS011;12311;50.866;4.332;2023-04-30T19:16:14;3.40;;;1.38;;
24151;SDS011;12311;50.866;4.332;2023-04-30T19:18:40;3.28;;;1.50;;
24151;SDS011;12311;50.866;4.332;2023-04-30T19:21:06;2.45;;;1.42;;
24151;SDS011;12311;50.866;4.332;2023-04-30T19:23:33;2.45;;;1.40;;
24151;SDS011;12311;50.866;4.332;2023-04-30T19:25:59;1.55;;;1.20;;
24151;SDS011;12311;50.866;4.332;2023-04-30T19:28:25;3.22;;;1.50;;
24151;SDS011;12311;50.866;4.332;2023-04-30T19:30:52;3.42;;;1.38;;
